createdAt,value
2019-05-12T00:01:10.029Z,81.99
2019-05-12T00:06:15.014Z,81.47
2019-05-12T00:11:20.038Z,81.80
2019-05-12T00:16:25.365Z,81.27
2019-05-12T00:21:30.762Z,80.92
2019-05-12T00:26:38.171Z,80.60
2019-05-12T00:31:42.988Z,81.07
2019-05-12T00:36:48.660Z,81.60
2019-05-12T00:41:54.019Z,80.79
2019-05-12T00:46:59.081Z,82.01
2019-05-12T00:52:04.573Z,82.08
2019-05-12T00:57:10.166Z,82.33
2019-05-12T01:02:15.555Z,81.73
2019-05-12T01:07:20.985Z,81.80
2019-05-12T01:12:28.493Z,81.65
2019-05-12T01:17:33.469Z,81.97
2019-05-12T01:22:38.630Z,81.94
2019-05-12T01:27:44.291Z,82.26
2019-05-12T01:32:49.549Z,81.75
2019-05-12T01:37:54.945Z,82.10
2019-05-12T01:43:00.338Z,81.71
2019-05-12T01:48:08.352Z,82.22
2019-05-12T01:53:12.514Z,81.67
2019-05-12T01:58:19.311Z,81.74
2019-05-12T02:03:24.672Z,81.42
2019-05-12T02:08:38.236Z,81.35
2019-05-12T02:13:42.963Z,81.44
2019-05-12T02:18:49.026Z,81.80
2019-05-12T02:23:54.329Z,81.10
2019-05-12T02:29:00.056Z,81.11
2019-05-12T02:34:05.831Z,80.36
2019-05-12T02:39:14.651Z,80.05
2019-05-12T02:44:18.409Z,80.18
2019-05-12T02:49:24.478Z,80.00
2019-05-12T02:54:47.105Z,80.01
2019-05-12T02:59:39.991Z,79.83
2019-05-12T03:04:45.901Z,79.87
2019-05-12T03:09:55.025Z,79.49
2019-05-12T03:15:00.683Z,79.79
2019-05-12T03:20:06.338Z,80.00
2019-05-12T03:25:20.912Z,78.75
2019-05-12T03:30:19.853Z,79.38
2019-05-12T03:35:32.399Z,80.21
2019-05-12T03:40:37.647Z,80.12
2019-05-12T03:45:39.689Z,80.00
2019-05-12T03:50:46.164Z,79.19
2019-05-12T03:55:55.052Z,79.47
2019-05-12T04:00:59.265Z,78.82
2019-05-12T04:06:04.979Z,78.29
2019-05-12T04:11:10.277Z,78.50
2019-05-12T04:16:16.409Z,77.86
2019-05-12T04:21:24.336Z,78.52
2019-05-12T04:26:28.576Z,77.50
2019-05-12T04:31:34.897Z,77.46
2019-05-12T04:36:40.865Z,76.92
2019-05-12T04:41:46.247Z,76.97
2019-05-12T04:46:51.611Z,77.08
2019-05-12T04:51:56.902Z,76.60
2019-05-12T04:57:04.147Z,76.75
2019-05-12T05:02:08.665Z,76.53
2019-05-12T05:07:15.156Z,75.98
2019-05-12T05:12:20.239Z,75.59
2019-05-12T05:17:25.713Z,75.69
2019-05-12T05:22:33.207Z,76.58
2019-05-12T05:27:38.105Z,75.75
2019-05-12T05:32:44.417Z,75.48
2019-05-12T05:37:50.170Z,75.40
2019-05-12T05:42:55.693Z,74.99
2019-05-12T05:48:05.519Z,75.62
2019-05-12T05:53:09.167Z,75.62
2019-05-12T05:58:15.560Z,75.06
2019-05-12T06:03:27.216Z,75.27
2019-05-12T06:08:28.462Z,75.08
2019-05-12T06:13:34.566Z,73.55
2019-05-12T06:18:39.653Z,74.49
2019-05-12T06:23:45.026Z,72.95
2019-05-12T06:28:50.428Z,72.23
2019-05-12T06:33:55.766Z,72.21
2019-05-12T06:39:00.909Z,71.33
2019-05-12T06:44:09.008Z,70.62
2019-05-12T06:49:17.547Z,70.86
2019-05-12T06:54:19.962Z,70.62
2019-05-12T06:59:25.221Z,69.99
2019-05-12T07:04:30.217Z,71.19
2019-05-12T07:09:50.998Z,70.29
2019-05-12T07:14:43.827Z,71.55
2019-05-12T07:19:56.390Z,71.91
2019-05-12T07:24:55.802Z,72.35
2019-05-12T07:30:00.892Z,73.20
2019-05-12T07:35:06.401Z,72.96
2019-05-12T07:40:13.770Z,72.96
2019-05-12T07:45:22.336Z,72.78
2019-05-12T07:50:27.343Z,72.28
2019-05-12T07:55:34.186Z,71.76
2019-05-12T08:00:40.281Z,70.96
2019-05-12T08:05:45.945Z,71.73
2019-05-12T08:10:53.538Z,71.57
2019-05-12T08:15:57.838Z,71.86
2019-05-12T08:21:03.883Z,71.62
2019-05-12T08:26:12.400Z,70.26
2019-05-12T08:31:16.076Z,71.40
2019-05-12T08:36:23.460Z,71.80
2019-05-12T08:41:28.572Z,71.77
2019-05-12T08:46:34.410Z,70.90
2019-05-12T08:51:40.109Z,69.84
2019-05-12T08:56:45.402Z,71.29
2019-05-12T09:01:50.495Z,69.62
2019-05-12T09:06:59.715Z,70.57
2019-05-12T09:12:03.642Z,71.76
2019-05-12T09:17:08.751Z,73.07
2019-05-12T09:22:18.478Z,73.42
2019-05-12T09:27:21.347Z,72.63
2019-05-12T09:32:26.763Z,74.61
2019-05-12T09:37:39.050Z,74.28
2019-05-12T09:42:39.219Z,74.23
2019-05-12T09:47:44.230Z,74.15
2019-05-12T09:52:52.901Z,72.87
2019-05-12T09:57:56.935Z,71.35
2019-05-12T10:03:04.890Z,71.53
2019-05-12T10:08:10.010Z,67.84
2019-05-12T10:13:15.098Z,70.62
2019-05-12T10:18:20.441Z,68.38
2019-05-12T10:23:27.391Z,66.88
2019-05-12T10:28:32.918Z,68.30
2019-05-12T10:33:38.382Z,65.73
2019-05-12T10:38:44.205Z,66.07
2019-05-12T10:43:56.075Z,64.66
2019-05-12T10:48:56.655Z,66.38
2019-05-12T10:54:11.825Z,66.55
2019-05-12T10:59:09.239Z,67.37
2019-05-12T11:04:14.584Z,67.88
2019-05-12T11:09:21.232Z,67.85
2019-05-12T11:14:30.477Z,67.75
2019-05-12T11:19:33.903Z,67.56
2019-05-12T11:24:39.290Z,66.69
2019-05-12T11:29:49.099Z,66.35
2019-05-12T11:34:53.719Z,66.70
2019-05-12T11:39:59.197Z,63.94
2019-05-12T11:45:04.499Z,62.55
2019-05-12T11:50:10.230Z,60.03
2019-05-12T11:55:15.498Z,59.37
2019-05-12T12:00:24.179Z,57.25
2019-05-12T12:05:29.651Z,58.24
2019-05-12T12:10:39.591Z,56.99
2019-05-12T12:15:42.191Z,61.77
2019-05-12T12:20:47.770Z,61.51
2019-05-12T12:25:53.574Z,61.26
2019-05-12T12:31:01.938Z,60.75
2019-05-12T12:36:06.509Z,60.00
2019-05-12T12:41:13.192Z,57.75
2019-05-12T12:46:24.383Z,54.79
2019-05-12T12:51:30.043Z,53.05
2019-05-12T12:56:35.111Z,51.91
2019-05-12T13:01:40.495Z,54.38
2019-05-12T13:06:45.495Z,53.70
2019-05-12T13:11:50.763Z,53.11
2019-05-12T13:16:56.330Z,52.70
2019-05-12T13:22:03.595Z,52.68
2019-05-12T13:27:08.393Z,55.50
2019-05-12T13:32:13.921Z,55.28
2019-05-12T13:37:19.661Z,58.13
2019-05-12T13:42:24.862Z,56.23
2019-05-12T13:47:35.511Z,57.45
2019-05-12T13:52:36.557Z,54.30
2019-05-12T13:57:46.716Z,52.49
2019-05-12T14:02:49.151Z,51.02
2019-05-12T14:07:57.440Z,50.55
2019-05-12T14:13:03.545Z,51.06
2019-05-12T14:18:10.444Z,49.54
2019-05-12T14:23:16.099Z,48.07
2019-05-12T14:28:23.455Z,50.15
2019-05-12T14:33:29.852Z,47.20
2019-05-12T14:38:35.247Z,46.88
2019-05-12T14:43:40.836Z,47.56
2019-05-12T14:48:50.296Z,45.83
2019-05-12T14:53:53.598Z,47.13
2019-05-12T14:59:00.625Z,45.80
2019-05-12T15:04:05.527Z,46.06
2019-05-12T15:09:11.423Z,44.75
2019-05-12T15:14:18.082Z,43.40
2019-05-12T15:19:27.836Z,45.20
2019-05-12T15:24:31.124Z,43.89
2019-05-12T15:29:37.835Z,44.76
2019-05-12T15:34:44.150Z,42.69
2019-05-12T15:39:50.214Z,42.37
2019-05-12T15:44:55.579Z,44.07
2019-05-12T15:50:00.656Z,42.18
2019-05-12T15:55:06.563Z,40.97
2019-05-12T16:00:13.790Z,40.58
2019-05-12T16:05:20.237Z,41.82
2019-05-12T16:10:26.058Z,42.16
2019-05-12T16:15:31.296Z,44.85
2019-05-12T16:20:36.565Z,43.61
2019-05-12T16:25:41.980Z,44.19
2019-05-12T16:30:47.441Z,42.75
2019-05-12T16:35:54.600Z,41.89
2019-05-12T16:41:00.360Z,44.71
2019-05-12T16:46:05.968Z,42.76
2019-05-12T16:51:13.862Z,41.41
2019-05-12T16:56:19.985Z,43.45
2019-05-12T17:01:29.209Z,44.16
2019-05-12T17:06:34.964Z,42.22
2019-05-12T17:11:47.266Z,42.38
2019-05-12T17:16:46.904Z,44.78
2019-05-12T17:21:58.195Z,44.71
2019-05-12T17:27:00.171Z,45.46
2019-05-12T17:32:05.278Z,46.23
2019-05-12T17:37:10.851Z,43.62
2019-05-12T17:42:21.494Z,44.92
2019-05-12T17:47:25.814Z,45.42
2019-05-12T17:52:29.522Z,47.18
2019-05-12T17:57:34.659Z,46.88
2019-05-12T18:02:39.658Z,49.17
2019-05-12T18:07:50.509Z,47.49
2019-05-12T18:12:53.485Z,49.71
2019-05-12T18:17:58.963Z,48.54
2019-05-12T18:23:04.532Z,49.96
2019-05-12T18:28:10.127Z,52.01
2019-05-12T18:33:29.178Z,51.42
2019-05-12T18:38:26.138Z,52.48
2019-05-12T18:43:29.950Z,53.51
2019-05-12T18:48:35.619Z,54.53
2019-05-12T18:53:40.689Z,55.57
2019-05-12T18:58:46.004Z,54.39
2019-05-12T19:03:51.368Z,57.41
2019-05-12T19:08:56.644Z,56.36
2019-05-12T19:14:04.188Z,54.05
2019-05-12T19:19:09.867Z,55.64
2019-05-12T19:24:20.000Z,57.89
2019-05-12T19:29:24.317Z,57.19
2019-05-12T19:34:31.845Z,55.93
2019-05-12T19:39:36.192Z,54.97
2019-05-12T19:44:43.769Z,57.71
2019-05-12T19:49:50.722Z,60.36
2019-05-12T19:54:56.652Z,60.61
2019-05-12T20:00:04.342Z,61.42
2019-05-12T20:05:09.261Z,61.46
2019-05-12T20:10:16.639Z,61.49
2019-05-12T20:15:23.874Z,60.73
2019-05-12T20:20:36.737Z,60.09
2019-05-12T20:25:38.321Z,59.90
2019-05-12T20:30:44.178Z,60.19
2019-05-12T20:35:49.651Z,62.05
2019-05-12T20:40:54.713Z,61.57
2019-05-12T20:45:59.921Z,61.54
2019-05-12T20:51:08.734Z,60.83
2019-05-12T20:56:18.506Z,59.30
2019-05-12T21:01:20.323Z,59.75
2019-05-12T21:06:26.061Z,60.90
2019-05-12T21:11:33.700Z,61.00
2019-05-12T21:16:38.959Z,58.87
2019-05-12T21:21:44.509Z,58.59
2019-05-12T21:26:49.891Z,58.65
2019-05-12T21:31:56.274Z,58.79
2019-05-12T21:37:04.906Z,58.38
2019-05-12T21:42:08.845Z,57.75
2019-05-12T21:47:14.440Z,57.12
2019-05-12T21:52:19.858Z,58.27
2019-05-12T21:57:30.859Z,58.12
2019-05-12T22:02:34.133Z,59.85
2019-05-12T22:07:40.002Z,59.54
2019-05-12T22:12:45.456Z,59.25
2019-05-12T22:18:00.372Z,60.43
2019-05-12T22:23:10.215Z,58.76
2019-05-12T22:28:13.585Z,61.32
2019-05-12T22:33:18.913Z,60.04
2019-05-12T22:38:24.980Z,62.06
2019-05-12T22:43:31.486Z,62.92
2019-05-12T22:48:40.611Z,63.07
2019-05-12T22:53:44.521Z,64.66
2019-05-12T22:58:51.901Z,66.57
2019-05-12T23:03:56.965Z,66.09
2019-05-12T23:09:01.960Z,64.35
2019-05-12T23:14:07.124Z,66.08
2019-05-12T23:19:14.920Z,64.15
2019-05-12T23:24:19.648Z,64.13
2019-05-12T23:29:26.783Z,65.77
2019-05-12T23:34:33.831Z,66.37
2019-05-12T23:39:39.933Z,65.80
2019-05-12T23:44:45.495Z,62.03
2019-05-12T23:49:53.065Z,64.23
2019-05-12T23:54:58.054Z,65.82
